createdAt,value
2019-06-20T00:00:46.218Z,12.28
2019-06-20T00:03:15.840Z,10.10
2019-06-20T00:05:45.359Z,14.83
2019-06-20T00:08:15.193Z,14.45
2019-06-20T00:10:44.965Z,12.35
2019-06-20T00:13:15.493Z,13.35
2019-06-20T00:15:45.349Z,13.28
2019-06-20T00:18:14.717Z,12.07
2019-06-20T00:20:44.176Z,15.28
2019-06-20T00:23:13.598Z,17.57
2019-06-20T00:25:43.196Z,26.02
2019-06-20T00:28:12.594Z,23.83
2019-06-20T00:30:43.591Z,23.32
2019-06-20T00:33:12.965Z,21.60
2019-06-20T00:35:42.370Z,24.75
2019-06-20T00:38:11.957Z,24.57
2019-06-20T00:40:41.612Z,24.15
2019-06-20T00:43:17.468Z,27.67
2019-06-20T00:45:44.993Z,30.48
2019-06-20T00:48:14.374Z,25.20
2019-06-20T00:50:43.805Z,27.48
2019-06-20T00:53:13.205Z,28.05
2019-06-20T00:55:42.585Z,31.68
2019-06-20T00:58:12.222Z,30.37
2019-06-20T01:00:41.604Z,34.48
2019-06-20T01:03:11.030Z,31.80
2019-06-20T01:05:40.421Z,36.15
2019-06-20T01:08:09.775Z,36.93
2019-06-20T01:10:39.178Z,32.75
2019-06-20T01:13:08.538Z,37.78
2019-06-20T01:15:38.132Z,38.08
2019-06-20T01:18:07.487Z,40.85
2019-06-20T01:20:36.867Z,35.95
2019-06-20T01:23:07.312Z,43.85
2019-06-20T01:25:39.734Z,42.50
2019-06-20T01:28:09.435Z,40.55
2019-06-20T01:30:39.139Z,45.03
2019-06-20T01:33:08.523Z,40.17
2019-06-20T01:35:38.061Z,43.28
2019-06-20T01:38:07.597Z,46.90
2019-06-20T01:40:37.038Z,43.87
2019-06-20T01:43:06.601Z,44.15
2019-06-20T01:45:36.175Z,43.20
2019-06-20T01:48:05.591Z,45.17
2019-06-20T01:50:34.987Z,48.52
2019-06-20T01:53:04.492Z,46.63
2019-06-20T01:55:34.106Z,45.12
2019-06-20T01:58:03.771Z,48.05
2019-06-20T02:00:45.196Z,50.63
2019-06-20T02:03:15.472Z,46.37
2019-06-20T02:05:45.026Z,48.65
2019-06-20T02:08:15.047Z,50.20
2019-06-20T02:10:44.532Z,49.35
2019-06-20T02:13:13.903Z,51.23
2019-06-20T02:15:43.275Z,50.15
2019-06-20T02:18:13.065Z,52.93
2019-06-20T02:20:45.503Z,52.65
2019-06-20T02:23:14.895Z,57.53
2019-06-20T02:25:44.295Z,61.35
2019-06-20T02:28:13.725Z,54.18
2019-06-20T02:30:43.255Z,54.55
2019-06-20T02:33:13.699Z,52.90
2019-06-20T02:35:43.078Z,50.30
2019-06-20T02:38:12.487Z,56.37
2019-06-20T02:40:41.932Z,60.08
2019-06-20T02:43:11.394Z,57.20
2019-06-20T02:45:44.687Z,61.77
2019-06-20T02:48:14.087Z,54.98
2019-06-20T02:50:43.559Z,65.85
2019-06-20T02:53:12.968Z,60.52
2019-06-20T02:55:43.447Z,61.02
2019-06-20T02:58:12.817Z,65.32
2019-06-20T03:00:56.197Z,62.15
2019-06-20T03:03:26.898Z,71.33
2019-06-20T03:05:57.115Z,76.62
2019-06-20T03:08:26.499Z,76.00
2019-06-20T03:10:55.942Z,78.70
2019-06-20T03:13:25.393Z,74.00
2019-06-20T03:15:54.846Z,80.75
2019-06-20T03:18:24.292Z,69.92
2019-06-20T03:20:53.727Z,77.32
2019-06-20T03:23:23.204Z,71.15
2019-06-20T03:25:52.742Z,79.65
2019-06-20T03:28:22.315Z,83.17
2019-06-20T03:30:51.878Z,79.27
2019-06-20T03:33:22.224Z,78.62
2019-06-20T03:35:51.604Z,79.40
2019-06-20T03:38:21.960Z,73.40
2019-06-20T03:40:51.339Z,69.15
2019-06-20T03:43:20.740Z,73.55
2019-06-20T03:45:50.115Z,73.02
2019-06-20T03:48:19.714Z,69.17
2019-06-20T03:50:49.163Z,76.53
2019-06-20T03:53:18.533Z,78.12
2019-06-20T03:55:47.988Z,74.03
2019-06-20T03:58:17.365Z,71.45
2019-06-20T04:00:46.763Z,70.87
2019-06-20T04:03:16.142Z,73.60
2019-06-20T04:05:45.696Z,74.92
2019-06-20T04:08:15.089Z,70.72
2019-06-20T04:10:44.534Z,66.33
2019-06-20T04:13:13.923Z,70.60
2019-06-20T04:15:43.315Z,68.40
2019-06-20T04:18:13.755Z,70.90
2019-06-20T04:20:43.152Z,65.85
2019-06-20T04:23:12.530Z,70.87
2019-06-20T04:25:42.879Z,70.65
2019-06-20T04:28:12.291Z,60.92
2019-06-20T04:30:41.785Z,65.30
2019-06-20T04:33:11.157Z,66.45
2019-06-20T04:35:42.255Z,67.00
2019-06-20T04:38:11.636Z,69.60
2019-06-20T04:40:41.300Z,67.27
2019-06-20T04:43:10.669Z,63.75
2019-06-20T04:45:41.880Z,66.82
2019-06-20T04:48:11.353Z,59.83
2019-06-20T04:50:40.730Z,68.42
2019-06-20T04:53:10.124Z,61.60
2019-06-20T04:55:39.607Z,65.12
2019-06-20T04:58:08.970Z,62.30
2019-06-20T05:00:38.344Z,58.45
2019-06-20T05:03:07.744Z,65.32
2019-06-20T05:05:37.123Z,59.03
2019-06-20T05:08:06.537Z,66.12
2019-06-20T05:10:36.081Z,63.58
2019-06-20T05:13:06.720Z,62.73
2019-06-20T05:15:51.548Z,59.90
2019-06-20T05:18:07.224Z,73.97
2019-06-20T05:20:36.606Z,66.67
2019-06-20T05:23:06.200Z,62.53
2019-06-20T05:25:35.542Z,71.50
2019-06-20T05:28:04.913Z,62.78
2019-06-20T05:30:34.407Z,64.65
2019-06-20T05:33:04.225Z,61.98
2019-06-20T05:35:33.903Z,61.25
2019-06-20T05:38:03.633Z,63.85
2019-06-20T05:40:36.996Z,57.20
2019-06-20T05:43:05.522Z,57.35
2019-06-20T05:45:34.935Z,59.73
2019-06-20T05:48:04.822Z,60.48
2019-06-20T05:50:35.359Z,52.80
2019-06-20T05:53:04.901Z,61.08
2019-06-20T05:55:34.459Z,55.90
2019-06-20T05:58:04.111Z,61.90
2019-06-20T06:00:33.731Z,66.42
2019-06-20T06:03:06.804Z,56.00
2019-06-20T06:05:34.363Z,50.43
2019-06-20T06:08:04.016Z,55.40
2019-06-20T06:10:33.605Z,58.15
2019-06-20T06:13:03.170Z,60.20
2019-06-20T06:15:32.623Z,61.15
2019-06-20T06:18:02.366Z,50.20
2019-06-20T06:20:32.043Z,59.10
2019-06-20T06:23:01.520Z,52.48
2019-06-20T06:25:31.145Z,49.18
2019-06-20T06:28:00.642Z,49.23
2019-06-20T06:30:30.262Z,45.40
2019-06-20T06:32:59.631Z,45.50
2019-06-20T06:35:29.327Z,51.50
2019-06-20T06:37:58.765Z,46.58
2019-06-20T06:40:28.507Z,48.08
2019-06-20T06:42:57.882Z,46.70
2019-06-20T06:45:28.307Z,41.98
2019-06-20T06:47:57.734Z,37.65
2019-06-20T06:50:27.590Z,42.98
2019-06-20T06:52:56.996Z,40.30
2019-06-20T06:55:27.793Z,41.75
2019-06-20T06:57:57.581Z,44.63
2019-06-20T07:00:27.020Z,43.48
2019-06-20T07:02:56.434Z,44.93
2019-06-20T07:05:25.805Z,43.83
2019-06-20T07:07:55.188Z,47.00
2019-06-20T07:10:24.716Z,38.70
2019-06-20T07:12:54.080Z,43.98
2019-06-20T07:15:23.699Z,43.25
2019-06-20T07:17:53.092Z,45.80
2019-06-20T07:20:23.443Z,37.00
2019-06-20T07:22:52.972Z,43.15
2019-06-20T07:25:22.360Z,42.45
2019-06-20T07:27:51.750Z,40.78
2019-06-20T07:30:21.475Z,41.23
2019-06-20T07:32:50.932Z,36.50
2019-06-20T07:35:20.298Z,34.75
2019-06-20T07:37:49.818Z,31.75
2019-06-20T07:40:19.343Z,37.95
2019-06-20T07:42:48.728Z,34.18
2019-06-20T07:45:21.162Z,36.68
2019-06-20T07:47:50.535Z,32.85
2019-06-20T07:50:20.031Z,30.62
2019-06-20T07:53:01.499Z,31.93
2019-06-20T07:55:20.836Z,34.83
2019-06-20T07:57:50.222Z,40.28
2019-06-20T08:00:20.116Z,33.35
2019-06-20T08:02:49.481Z,34.90
2019-06-20T08:05:19.121Z,36.38
2019-06-20T08:07:48.546Z,35.10
2019-06-20T08:10:18.361Z,32.20
2019-06-20T08:12:47.756Z,32.88
2019-06-20T08:15:18.165Z,33.30
2019-06-20T08:17:49.174Z,41.65
2019-06-20T08:20:19.006Z,35.55
2019-06-20T08:22:48.365Z,36.68
2019-06-20T08:25:18.288Z,34.43
2019-06-20T08:27:50.655Z,33.18
2019-06-20T08:30:22.604Z,31.85
2019-06-20T08:32:52.257Z,29.82
2019-06-20T08:35:23.894Z,31.45
2019-06-20T08:37:54.412Z,27.22
2019-06-20T08:40:26.125Z,28.73
2019-06-20T08:42:57.160Z,27.50
2019-06-20T08:45:28.787Z,32.38
2019-06-20T08:47:58.426Z,28.83
2019-06-20T08:50:27.966Z,30.02
2019-06-20T08:52:58.028Z,34.10
2019-06-20T08:55:28.151Z,28.25
2019-06-20T08:57:59.383Z,32.00
2019-06-20T09:00:30.951Z,25.77
2019-06-20T09:03:00.685Z,26.12
2019-06-20T09:05:31.064Z,31.12
2019-06-20T09:10:38.873Z,23.67
2019-06-20T09:13:09.354Z,26.90
2019-06-20T09:15:38.995Z,29.40
2019-06-20T09:18:10.493Z,19.50
2019-06-20T09:20:40.208Z,20.90
2019-06-20T09:23:09.629Z,20.32
2019-06-20T09:25:39.552Z,26.57
2019-06-20T09:28:09.114Z,22.98
2019-06-20T09:30:38.965Z,23.30
2019-06-20T09:33:08.488Z,23.62
2019-06-20T09:35:37.911Z,20.92
2019-06-20T09:38:07.745Z,15.58
2019-06-20T09:40:37.111Z,22.37
2019-06-20T09:43:06.673Z,19.05
2019-06-20T09:45:37.659Z,19.20
2019-06-20T09:48:07.041Z,25.02
2019-06-20T09:50:36.615Z,26.70
2019-06-20T09:53:06.157Z,26.17
2019-06-20T09:55:35.562Z,25.90
2019-06-20T09:58:05.218Z,29.20
2019-06-20T10:00:35.244Z,27.93
2019-06-20T10:03:05.453Z,22.13
2019-06-20T10:05:36.538Z,22.95
2019-06-20T10:08:06.911Z,22.17
2019-06-20T10:10:38.221Z,23.42
2019-06-20T10:13:07.985Z,25.77
2019-06-20T10:15:38.560Z,19.12
2019-06-20T10:18:08.390Z,19.75
2019-06-20T10:20:38.931Z,17.15
2019-06-20T10:23:08.662Z,16.30
2019-06-20T10:25:38.566Z,16.77
2019-06-20T10:28:08.178Z,21.68
2019-06-20T10:30:37.550Z,20.32
2019-06-20T10:33:06.946Z,23.45
2019-06-20T10:35:36.321Z,17.30
2019-06-20T10:38:05.763Z,21.80
2019-06-20T10:40:35.933Z,16.55
2019-06-20T10:43:05.600Z,20.65
2019-06-20T10:45:36.260Z,22.75
2019-06-20T10:48:06.249Z,23.65
2019-06-20T10:50:35.811Z,20.65
2019-06-20T10:53:06.089Z,21.05
2019-06-20T10:55:36.029Z,20.82
2019-06-20T10:58:05.885Z,18.48
2019-06-20T11:00:35.446Z,19.90
2019-06-20T11:03:05.559Z,20.45
2019-06-20T11:05:34.948Z,19.12
2019-06-20T11:08:04.498Z,14.85
2019-06-20T11:10:34.427Z,19.62
2019-06-20T11:13:04.444Z,16.35
2019-06-20T11:15:34.052Z,14.05
2019-06-20T11:18:04.166Z,14.05
2019-06-20T11:20:33.694Z,13.15
2019-06-20T11:23:03.278Z,13.00
2019-06-20T11:25:32.781Z,11.18
2019-06-20T11:28:02.277Z,14.07
2019-06-20T11:30:48.131Z,12.28
2019-06-20T11:33:05.182Z,13.83
2019-06-20T11:35:35.940Z,16.45
2019-06-20T11:38:06.133Z,13.70
2019-06-20T11:40:36.805Z,20.08
2019-06-20T11:43:06.729Z,16.85
2019-06-20T11:45:37.347Z,14.53
2019-06-20T11:48:07.444Z,11.63
2019-06-20T11:50:37.920Z,11.43
2019-06-20T11:53:08.543Z,11.03
2019-06-20T11:55:37.970Z,11.83
2019-06-20T11:58:07.341Z,11.43
2019-06-20T12:00:36.734Z,11.33
2019-06-20T12:03:06.190Z,11.60
2019-06-20T12:05:35.602Z,12.85
2019-06-20T12:08:04.973Z,14.25
2019-06-20T12:10:34.423Z,15.88
2019-06-20T12:13:04.108Z,19.30
2019-06-20T12:15:33.744Z,15.55
2019-06-20T12:18:03.285Z,15.30
2019-06-20T12:20:32.724Z,12.82
2019-06-20T12:23:03.345Z,17.48
2019-06-20T12:25:32.690Z,14.50
2019-06-20T12:28:02.528Z,16.17
2019-06-20T12:30:32.082Z,15.68
2019-06-20T12:33:01.598Z,16.23
2019-06-20T12:35:31.028Z,16.07
2019-06-20T12:38:00.487Z,13.65
2019-06-20T12:40:29.861Z,16.05
2019-06-20T12:42:59.263Z,16.85
2019-06-20T12:45:28.754Z,17.15
2019-06-20T12:47:58.207Z,17.70
2019-06-20T12:50:27.592Z,12.82
2019-06-20T12:52:56.978Z,16.12
2019-06-20T12:55:26.348Z,15.63
2019-06-20T12:57:55.724Z,12.70
2019-06-20T13:00:27.235Z,10.58
2019-06-20T13:02:56.853Z,12.95
2019-06-20T13:05:26.613Z,15.85
2019-06-20T13:07:56.076Z,14.33
2019-06-20T13:10:25.598Z,13.70
2019-06-20T13:12:54.987Z,13.32
2019-06-20T13:15:24.527Z,12.33
2019-06-20T13:17:54.010Z,11.40
2019-06-20T13:20:23.590Z,11.05
2019-06-20T13:22:53.056Z,10.10
2019-06-20T13:25:22.505Z,11.88
2019-06-20T13:27:51.953Z,11.08
2019-06-20T13:30:21.557Z,9.08
2019-06-20T13:32:51.030Z,12.80
2019-06-20T13:35:20.713Z,8.10
2019-06-20T13:37:51.171Z,12.00
2019-06-20T13:40:20.890Z,8.50
2019-06-20T13:42:50.541Z,13.88
2019-06-20T13:45:24.195Z,11.30
2019-06-20T13:47:54.355Z,7.85
2019-06-20T13:50:25.140Z,7.17
2019-06-20T13:52:55.151Z,8.70
2019-06-20T13:55:24.637Z,10.93
2019-06-20T13:57:54.224Z,11.63
2019-06-20T14:00:24.973Z,8.53
2019-06-20T14:02:54.380Z,8.53
2019-06-20T14:05:23.817Z,11.38
2019-06-20T14:07:54.319Z,11.78
2019-06-20T14:10:24.686Z,8.70
2019-06-20T14:12:54.079Z,12.53
2019-06-20T14:15:24.552Z,11.68
2019-06-20T14:17:54.005Z,11.60
2019-06-20T14:20:25.360Z,12.63
2019-06-20T14:22:54.733Z,9.03
2019-06-20T14:25:24.664Z,10.18
2019-06-20T14:27:54.206Z,9.98
2019-06-20T14:30:23.987Z,8.48
2019-06-20T14:32:53.968Z,9.43
2019-06-20T14:35:23.747Z,8.60
2019-06-20T14:37:55.457Z,11.80
2019-06-20T14:40:25.103Z,6.95
2019-06-20T14:42:55.427Z,7.10
2019-06-20T14:45:24.950Z,10.50
2019-06-20T14:47:55.217Z,8.83
2019-06-20T14:50:25.045Z,9.50
2019-06-20T14:52:54.595Z,7.90
2019-06-20T14:55:24.182Z,15.25
2019-06-20T14:57:54.731Z,7.17
2019-06-20T15:00:25.172Z,5.97
2019-06-20T15:02:58.442Z,7.28
2019-06-20T15:05:25.707Z,9.65
2019-06-20T15:07:55.865Z,8.35
2019-06-20T15:10:25.457Z,6.33
2019-06-20T15:12:56.005Z,9.05
2019-06-20T15:15:26.719Z,8.90
2019-06-20T15:17:58.112Z,12.50
2019-06-20T15:20:27.186Z,10.88
2019-06-20T15:22:56.885Z,9.88
2019-06-20T15:25:26.430Z,8.38
2019-06-20T15:27:57.329Z,6.53
2019-06-20T15:30:27.751Z,7.92
2019-06-20T15:33:07.623Z,10.53
2019-06-20T15:35:28.178Z,10.43
2019-06-20T15:37:57.913Z,7.47
2019-06-20T15:40:27.399Z,5.97
2019-06-20T15:42:58.906Z,7.72
2019-06-20T15:45:28.455Z,6.67
2019-06-20T15:47:57.810Z,5.97
2019-06-20T15:50:27.226Z,7.00
2019-06-20T15:52:57.555Z,8.43
2019-06-20T15:55:27.013Z,7.35
2019-06-20T15:57:56.622Z,7.03
2019-06-20T16:00:27.567Z,6.58
2019-06-20T16:03:09.473Z,5.42
2019-06-20T16:05:28.008Z,7.00
2019-06-20T16:07:57.372Z,6.33
2019-06-20T16:10:26.728Z,4.58
2019-06-20T16:12:56.092Z,8.83
2019-06-20T16:15:25.481Z,7.85
2019-06-20T16:17:54.854Z,5.30
2019-06-20T16:20:24.408Z,5.45
2019-06-20T16:22:53.770Z,6.83
2019-06-20T16:25:23.291Z,4.92
2019-06-20T16:27:52.763Z,9.83
2019-06-20T16:30:23.479Z,18.35
2019-06-20T16:32:52.920Z,14.23
2019-06-20T16:35:22.389Z,16.85
2019-06-20T16:37:51.801Z,15.08
2019-06-20T16:40:35.808Z,16.65
2019-06-20T16:43:05.271Z,15.28
2019-06-20T16:45:34.944Z,15.58
2019-06-20T16:48:04.411Z,14.43
2019-06-20T16:50:34.218Z,15.25
2019-06-20T16:53:04.042Z,15.85
2019-06-20T16:55:33.661Z,13.15
2019-06-20T16:58:03.044Z,13.15
2019-06-20T17:00:32.801Z,15.08
2019-06-20T17:03:02.440Z,18.67
2019-06-20T17:05:32.153Z,18.77
2019-06-20T17:08:01.799Z,20.85
2019-06-20T17:10:31.256Z,20.23
2019-06-20T17:13:00.693Z,20.02
2019-06-20T17:15:30.138Z,19.07
2019-06-20T17:17:59.533Z,16.17
2019-06-20T17:20:29.053Z,15.90
2019-06-20T17:22:58.513Z,18.05
2019-06-20T17:25:28.147Z,14.45
2019-06-20T17:27:57.538Z,12.65
2019-06-20T17:30:28.883Z,16.87
2019-06-20T17:32:58.305Z,13.10
2019-06-20T17:35:27.819Z,10.85
2019-06-20T17:37:57.431Z,12.73
2019-06-20T17:40:26.984Z,11.93
2019-06-20T17:42:56.436Z,10.35
2019-06-20T17:45:26.031Z,12.58
2019-06-20T17:47:55.403Z,10.95
2019-06-20T17:50:25.956Z,12.70
2019-06-20T17:52:55.471Z,12.45
2019-06-20T17:55:24.857Z,12.93
2019-06-20T17:57:54.259Z,14.25
2019-06-20T18:00:24.153Z,7.60
2019-06-20T18:02:53.532Z,11.65
2019-06-20T18:05:23.781Z,12.00
2019-06-20T18:07:53.214Z,12.80
2019-06-20T18:10:23.161Z,13.08
2019-06-20T18:12:52.568Z,11.97
2019-06-20T18:15:22.122Z,12.75
2019-06-20T18:17:51.506Z,11.38
2019-06-20T18:20:21.240Z,14.07
2019-06-20T18:22:50.610Z,11.68
2019-06-20T18:25:20.331Z,12.28
2019-06-20T18:27:49.917Z,10.70
2019-06-20T18:30:22.324Z,13.85
2019-06-20T18:32:51.738Z,11.30
2019-06-20T18:35:21.121Z,9.78
2019-06-20T18:37:50.527Z,13.13
2019-06-20T18:40:20.091Z,10.05
2019-06-20T18:42:49.553Z,14.30
2019-06-20T18:45:19.184Z,8.35
2019-06-20T18:47:48.611Z,12.60
2019-06-20T18:50:18.139Z,13.45
2019-06-20T18:52:52.008Z,13.85
2019-06-20T18:55:18.922Z,12.23
2019-06-20T18:57:48.380Z,12.88
2019-06-20T19:00:33.515Z,15.60
2019-06-20T19:02:49.867Z,12.50
2019-06-20T19:05:19.380Z,12.35
2019-06-20T19:07:48.774Z,13.90
2019-06-20T19:10:22.611Z,15.85
2019-06-20T19:12:52.238Z,13.35
2019-06-20T19:15:23.565Z,17.45
2019-06-20T19:17:52.927Z,16.52
2019-06-20T19:20:22.441Z,14.20
2019-06-20T19:22:51.810Z,16.02
2019-06-20T19:25:22.321Z,17.15
2019-06-20T19:27:51.822Z,22.07
2019-06-20T19:30:24.263Z,17.67
2019-06-20T19:32:53.702Z,23.05
2019-06-20T19:35:23.110Z,14.63
2019-06-20T19:37:52.491Z,16.77
2019-06-20T19:40:24.938Z,15.58
2019-06-20T19:42:54.327Z,19.02
2019-06-20T19:45:23.856Z,14.28
2019-06-20T19:47:53.242Z,21.73
2019-06-20T19:50:22.700Z,16.02
2019-06-20T19:52:52.381Z,21.35
2019-06-20T19:55:22.030Z,19.37
2019-06-20T19:57:51.406Z,27.45
2019-06-20T20:00:21.747Z,17.95
2019-06-20T20:02:51.189Z,25.37
2019-06-20T20:05:20.659Z,24.55
2019-06-20T20:07:50.319Z,19.32
2019-06-20T20:10:28.818Z,18.57
2019-06-20T20:12:58.187Z,14.65
2019-06-20T20:15:27.635Z,15.60
2019-06-20T20:17:57.042Z,16.30
2019-06-20T20:20:26.407Z,21.97
2019-06-20T20:22:55.791Z,17.55
2019-06-20T20:25:25.242Z,17.25
2019-06-20T20:27:54.690Z,20.20
2019-06-20T20:30:24.240Z,21.25
2019-06-20T20:32:53.780Z,23.55
2019-06-20T20:35:35.007Z,22.60
2019-06-20T20:37:55.213Z,22.85
2019-06-20T20:40:24.843Z,26.27
2019-06-20T20:42:54.234Z,18.75
2019-06-20T20:45:23.884Z,20.92
2019-06-20T20:47:53.334Z,27.02
2019-06-20T20:50:22.981Z,16.40
2019-06-20T20:52:52.402Z,18.52
2019-06-20T20:55:22.233Z,26.25
2019-06-20T20:57:52.237Z,18.23
2019-06-20T21:00:24.732Z,27.17
2019-06-20T21:02:55.453Z,23.90
2019-06-20T21:05:24.831Z,21.35
2019-06-20T21:07:54.280Z,26.52
2019-06-20T21:10:23.744Z,23.15
2019-06-20T21:12:53.170Z,25.30
2019-06-20T21:15:22.989Z,27.60
2019-06-20T21:17:55.632Z,23.25
2019-06-20T21:20:23.773Z,24.18
2019-06-20T21:22:53.202Z,26.42
2019-06-20T21:25:22.567Z,28.52
2019-06-20T21:27:52.082Z,21.45
2019-06-20T21:30:21.783Z,28.00
2019-06-20T21:32:51.272Z,21.50
2019-06-20T21:35:20.680Z,22.82
2019-06-20T21:37:50.065Z,26.33
2019-06-20T21:40:20.976Z,24.27
2019-06-20T21:42:50.430Z,28.60
2019-06-20T21:45:19.865Z,23.40
2019-06-20T21:47:49.256Z,26.75
2019-06-20T21:50:18.929Z,20.95
2019-06-20T21:52:48.484Z,25.85
2019-06-20T21:55:18.136Z,21.70
2019-06-20T21:57:47.512Z,31.77
2019-06-20T22:00:27.693Z,19.15
2019-06-20T22:02:58.685Z,18.55
2019-06-20T22:05:28.133Z,22.20
2019-06-20T22:07:57.593Z,27.77
2019-06-20T22:10:27.285Z,21.87
2019-06-20T22:12:56.659Z,20.12
2019-06-20T22:15:26.310Z,18.82
2019-06-20T22:17:55.742Z,22.98
2019-06-20T22:20:25.372Z,22.10
2019-06-20T22:22:55.366Z,19.57
2019-06-20T22:25:24.894Z,23.90
2019-06-20T22:27:54.555Z,20.45
2019-06-20T22:30:46.748Z,19.90
2019-06-20T22:33:16.298Z,23.67
2019-06-20T22:35:46.182Z,26.42
2019-06-20T22:38:15.740Z,23.20
2019-06-20T22:40:46.556Z,18.67
2019-06-20T22:43:15.949Z,26.97
2019-06-20T22:45:45.405Z,23.27
2019-06-20T22:48:14.794Z,23.85
2019-06-20T22:50:44.259Z,21.57
2019-06-20T22:53:13.770Z,22.52
2019-06-20T22:55:43.153Z,21.45
2019-06-20T22:58:12.584Z,19.32
2019-06-20T23:00:41.971Z,19.65
2019-06-20T23:03:11.356Z,28.75
2019-06-20T23:05:40.739Z,25.70
2019-06-20T23:08:10.165Z,23.85
2019-06-20T23:10:39.555Z,22.95
2019-06-20T23:13:09.005Z,23.98
2019-06-20T23:15:38.376Z,29.20
2019-06-20T23:18:07.850Z,23.40
2019-06-20T23:20:37.208Z,21.20
2019-06-20T23:23:06.620Z,22.73
2019-06-20T23:25:38.162Z,20.92
2019-06-20T23:28:07.621Z,20.20
2019-06-20T23:30:37.524Z,21.23
2019-06-20T23:33:07.059Z,20.57
2019-06-20T23:35:36.453Z,18.05
2019-06-20T23:38:06.068Z,18.85
2019-06-20T23:40:35.487Z,22.00
2019-06-20T23:43:04.877Z,21.12
2019-06-20T23:45:34.443Z,21.55
2019-06-20T23:48:04.059Z,21.35
2019-06-20T23:50:33.479Z,17.85
2019-06-20T23:53:07.258Z,26.77
2019-06-20T23:55:36.627Z,20.77
2019-06-20T23:58:06.262Z,22.15
